Terminal Aerodrome Forecast
Issued by NWS Chicago, IL

Home | Current Version | Previous Version | Text Only | Print | Product List | Glossary Off
Versions: 1 2 3 4 5 6 7 8 9 10 11 12 13 14 15 16 17 18 19 20 21 22 23 24 25 26

939
FTUS43 KLOT 012328
TAFRFD
TAF
KRFD 012328Z 0200/0224 27010KT P6SM VCSH OVC020
     FM020300 26009KT P6SM VCSH OVC015
     FM020700 29012KT P6SM OVC012
     FM021300 30009KT P6SM OVC018
     FM021600 29012G18KT P6SM OVC035=

USA.gov is the U.S. government's official web portal to all federal, state and local government web resources and services.